Time;durP1;ratioP1;P1;durP2;ratioP2;P2;SDS_P1;SDS_P2;PMS_P1;PMS_P2;Temp;Humidity;BMP_temperature;BMP_pressure;BME280_temperature;BME280_humidity;BME280_pressure;Samples;Min_cycle;Max_cycle;Signal;HPM_P1;HPM_P2
2022/09/22 00:01:14;;;;;;;1.30;1.20;;;;;;;;;;12633955;28;20032;-79
2022/09/22 00:07:18;;;;;;;1.50;1.10;;;;;;;;;;12633884;28;20032;-81
2022/09/22 00:13:20;;;;;;;1.10;1.10;;;;;;;;;;12633551;28;20059;-79
2022/09/22 00:19:24;;;;;;;1.23;1.17;;;;;;;;;;12634309;28;20477;-78
2022/09/22 00:25:26;;;;;;;1.27;1.17;;;;;;;;;;12615421;28;20151;-78
2022/09/22 00:31:29;;;;;;;1.73;1.20;;;;;;;;;;12631792;28;20402;-78
2022/09/22 00:37:31;;;;;;;2.17;1.40;;;;;;;;;;12631078;28;20043;-78
2022/09/22 00:43:36;;;;;;;1.40;1.30;;;;;;;;;;12632104;28;20035;-79
2022/09/22 00:49:44;;;;;;;1.58;1.30;;;;;;;;;;12630059;28;20071;-78
2022/09/22 00:55:57;;;;;;;1.35;1.25;;;;;;;;;;12630121;28;20137;-79
2022/09/22 01:01:59;;;;;;;1.40;1.10;;;;;;;;;;12629161;28;20036;-79
2022/09/22 01:08:02;;;;;;;1.37;0.90;;;;;;;;;;12628948;28;20024;-79
2022/09/22 01:14:13;;;;;;;1.00;1.00;;;;;;;;;;12630198;28;20051;-79
2022/09/22 01:20:22;;;;;;;0.63;0.63;;;;;;;;;;12630629;28;20039;-79
2022/09/22 01:26:23;;;;;;;0.90;0.90;;;;;;;;;;12611638;28;20035;-79
2022/09/22 01:32:38;;;;;;;1.00;0.90;;;;;;;;;;12611161;28;20040;-79
2022/09/22 01:38:58;;;;;;;1.13;1.10;;;;;;;;;;12629499;28;20036;-78
2022/09/22 01:45:10;;;;;;;1.13;0.80;;;;;;;;;;12610971;28;20036;-79
2022/09/22 01:51:19;;;;;;;1.38;0.85;;;;;;;;;;12610100;28;20100;-78
2022/09/22 01:57:24;;;;;;;1.52;0.60;;;;;;;;;;12611112;28;20051;-78
2022/09/22 02:03:44;;;;;;;0.70;0.52;;;;;;;;;;12628001;28;20461;-78
2022/09/22 02:09:46;;;;;;;0.77;0.60;;;;;;;;;;12637553;28;20484;-79
2022/09/22 02:16:00;;;;;;;0.80;0.80;;;;;;;;;;12636040;28;20122;-79
2022/09/22 02:22:03;;;;;;;2.17;0.70;;;;;;;;;;12632702;28;20077;-79
2022/09/22 02:28:06;;;;;;;0.65;0.50;;;;;;;;;;12619846;28;20134;-79
2022/09/22 02:34:08;;;;;;;0.63;0.45;;;;;;;;;;12636880;28;20040;-79
2022/09/22 02:40:15;;;;;;;1.03;0.63;;;;;;;;;;12635935;28;20052;-78
2022/09/22 02:46:25;;;;;;;0.88;0.60;;;;;;;;;;12614092;28;20032;-79
2022/09/22 02:52:27;;;;;;;0.55;0.50;;;;;;;;;;12630172;28;20540;-78
2022/09/22 02:58:29;;;;;;;0.47;0.47;;;;;;;;;;12635704;28;20036;-78
2022/09/22 03:04:31;;;;;;;0.82;0.70;;;;;;;;;;12618084;28;20068;-78
2022/09/22 03:10:32;;;;;;;0.50;0.45;;;;;;;;;;12634470;28;20036;-78
2022/09/22 03:16:34;;;;;;;1.73;0.70;;;;;;;;;;12616756;28;20055;-79
2022/09/22 03:22:36;;;;;;;0.50;0.50;;;;;;;;;;12633808;28;20032;-79
2022/09/22 03:28:38;;;;;;;1.00;0.50;;;;;;;;;;12634986;28;20080;-78
2022/09/22 03:34:39;;;;;;;0.40;0.40;;;;;;;;;;12616586;28;20039;-79
2022/09/22 03:40:41;;;;;;;0.70;0.70;;;;;;;;;;12632893;28;20134;-79
2022/09/22 03:46:43;;;;;;;0.50;0.50;;;;;;;;;;12616784;28;20146;-79
2022/09/22 03:52:45;;;;;;;0.43;0.43;;;;;;;;;;12631905;28;20097;-79
2022/09/22 03:58:47;;;;;;;0.43;0.43;;;;;;;;;;12632313;28;20382;-78
2022/09/22 04:04:49;;;;;;;0.50;0.50;;;;;;;;;;12633456;28;20036;-78
2022/09/22 04:10:51;;;;;;;0.88;0.50;;;;;;;;;;12632458;28;20401;-78
2022/09/22 04:16:53;;;;;;;0.63;0.57;;;;;;;;;;12631922;28;20036;-77
2022/09/22 04:22:54;;;;;;;0.30;0.30;;;;;;;;;;12630443;28;20036;-78
2022/09/22 04:28:56;;;;;;;0.50;0.50;;;;;;;;;;12630025;28;20059;-79
2022/09/22 04:34:58;;;;;;;0.65;0.52;;;;;;;;;;12633057;28;20051;-79
2022/09/22 04:41:00;;;;;;;0.70;0.70;;;;;;;;;;12634172;28;20489;-79
2022/09/22 04:47:02;;;;;;;0.50;0.50;;;;;;;;;;12632506;28;20028;-79
2022/09/22 04:53:04;;;;;;;0.40;0.40;;;;;;;;;;12630099;28;20091;-79
2022/09/22 04:59:06;;;;;;;1.23;0.60;;;;;;;;;;12628816;28;20286;-79
2022/09/22 05:05:08;;;;;;;0.90;0.60;;;;;;;;;;12630805;28;20028;-79
2022/09/22 05:11:11;;;;;;;0.73;0.60;;;;;;;;;;12631073;28;20059;-79
2022/09/22 05:17:12;;;;;;;;;;;;;;;;;;12631729;28;20040;-79
2022/09/22 05:23:14;;;;;;;0.50;0.40;;;;;;;;;;12632198;28;19923;-79
2022/09/22 05:29:17;;;;;;;0.30;0.30;;;;;;;;;;12626970;28;20469;-79
2022/09/22 05:35:23;;;;;;;0.60;0.60;;;;;;;;;;12629843;28;20050;-79
2022/09/22 05:41:24;;;;;;;0.32;0.30;;;;;;;;;;12616798;28;20076;-79
2022/09/22 05:47:26;;;;;;;1.07;0.70;;;;;;;;;;12625771;28;20072;-79
2022/09/22 05:53:28;;;;;;;1.83;0.90;;;;;;;;;;12602380;28;20082;-77
2022/09/22 05:59:30;;;;;;;0.40;0.40;;;;;;;;;;12595763;28;20047;-80
2022/09/22 06:05:32;;;;;;;0.83;0.70;;;;;;;;;;12571280;28;20040;-82
2022/09/22 06:11:34;;;;;;;0.40;0.40;;;;;;;;;;12591391;28;20574;-79
2022/09/22 06:17:36;;;;;;;0.68;0.60;;;;;;;;;;12594650;28;20036;-78
2022/09/22 06:23:38;;;;;;;0.50;0.50;;;;;;;;;;12576594;28;20045;-78
2022/09/22 06:29:41;;;;;;;0.77;0.45;;;;;;;;;;12596004;28;20465;-78
2022/09/22 06:35:44;;;;;;;0.50;0.50;;;;;;;;;;12609743;28;20048;-79
2022/09/22 06:41:45;;;;;;;2.03;0.65;;;;;;;;;;12599411;28;20033;-78
2022/09/22 06:47:50;;;;;;;0.82;0.60;;;;;;;;;;12598654;28;20048;-78
2022/09/22 06:53:53;;;;;;;1.33;0.85;;;;;;;;;;12607258;28;20431;-78
2022/09/22 06:59:55;;;;;;;0.93;0.70;;;;;;;;;;12602321;28;20339;-78
2022/09/22 07:06:02;;;;;;;0.90;0.77;;;;;;;;;;12617029;28;20096;-78
2022/09/22 07:12:05;;;;;;;1.30;0.63;;;;;;;;;;12605460;28;20504;-78
2022/09/22 07:18:07;;;;;;;1.00;0.80;;;;;;;;;;12611283;28;20033;-78
2022/09/22 07:24:09;;;;;;;1.35;0.50;;;;;;;;;;12594726;28;20520;-78
2022/09/22 07:30:12;;;;;;;0.97;0.60;;;;;;;;;;12610384;28;20055;-79
2022/09/22 07:36:18;;;;;;;1.30;0.80;;;;;;;;;;12601189;28;20389;-78
2022/09/22 07:42:21;;;;;;;0.70;0.70;;;;;;;;;;12606942;28;20047;-79
2022/09/22 07:48:46;;;;;;;0.95;0.80;;;;;;;;;;12599882;28;20090;-78
2022/09/22 07:54:47;;;;;;;1.05;0.95;;;;;;;;;;12608621;28;20040;-78
2022/09/22 08:00:50;;;;;;;2.20;1.20;;;;;;;;;;12598920;28;20028;-78
2022/09/22 08:06:54;;;;;;;0.95;0.90;;;;;;;;;;12592868;28;20043;-78
2022/09/22 08:12:56;;;;;;;0.80;0.80;;;;;;;;;;12591535;28;20488;-78
2022/09/22 08:18:58;;;;;;;;;;;;;;;;;;12595544;28;20051;-78
2022/09/22 08:25:00;;;;;;;0.93;0.70;;;;;;;;;;12601567;28;19935;-78
2022/09/22 08:31:02;;;;;;;0.50;0.50;;;;;;;;;;12588128;28;20036;-78
2022/09/22 08:37:04;;;;;;;0.80;0.70;;;;;;;;;;12598903;28;20175;-77
2022/09/22 08:43:08;;;;;;;1.35;0.60;;;;;;;;;;12595700;28;20059;-78
2022/09/22 08:55:50;;;;;;;2.03;0.80;;;;;;;;;;12599648;28;20096;-77
2022/09/22 09:02:07;;;;;;;1.30;0.50;;;;;;;;;;12608601;28;20020;-78
2022/09/22 09:08:08;;;;;;;0.43;0.40;;;;;;;;;;12583658;28;20047;-78
2022/09/22 09:14:20;;;;;;;1.87;0.80;;;;;;;;;;12596900;28;20447;-78
2022/09/22 09:20:49;;;;;;;1.05;0.43;;;;;;;;;;12573345;28;20373;-78
2022/09/22 09:26:51;;;;;;;0.68;0.52;;;;;;;;;;12584057;28;20048;-78
2022/09/22 09:32:56;;;;;;;0.20;0.20;;;;;;;;;;12601760;28;20032;-77
2022/09/22 09:38:59;;;;;;;1.02;0.30;;;;;;;;;;12604219;28;20212;-78
2022/09/22 09:45:02;;;;;;;0.30;0.30;;;;;;;;;;12580315;28;20316;-78
2022/09/22 09:51:04;;;;;;;;;;;;;;;;;;12588898;28;20074;-78
2022/09/22 09:57:10;;;;;;;0.38;0.28;;;;;;;;;;12585560;28;19912;-79
2022/09/22 10:03:14;;;;;;;0.82;0.50;;;;;;;;;;12592778;28;20055;-78
2022/09/22 10:09:23;;;;;;;0.65;0.40;;;;;;;;;;12588312;28;20028;-78
2022/09/22 10:15:26;;;;;;;0.40;0.40;;;;;;;;;;12593994;28;20151;-78
2022/09/22 10:21:27;;;;;;;0.30;0.20;;;;;;;;;;12590900;28;20457;-79
2022/09/22 10:27:30;;;;;;;0.45;0.40;;;;;;;;;;12583607;28;20056;-78
2022/09/22 10:33:32;;;;;;;0.22;0.22;;;;;;;;;;12599145;28;20048;-79
2022/09/22 10:39:43;;;;;;;0.55;0.22;;;;;;;;;;12599825;28;20028;-78
2022/09/22 10:46:08;;;;;;;1.08;0.32;;;;;;;;;;12604358;28;21294;-79
2022/09/22 10:52:10;;;;;;;0.40;0.30;;;;;;;;;;12581701;28;20413;-77
2022/09/22 10:58:31;;;;;;;0.37;0.33;;;;;;;;;;12607443;28;20096;-78
2022/09/22 11:04:33;;;;;;;0.25;0.25;;;;;;;;;;12574278;28;20346;-77
2022/09/22 11:17:09;;;;;;;0.40;0.25;;;;;;;;;;12593755;28;20047;-79
2022/09/22 11:23:17;;;;;;;0.43;0.30;;;;;;;;;;12594578;28;20028;-78
2022/09/22 11:29:25;;;;;;;1.30;0.20;;;;;;;;;;12577182;28;20035;-78
2022/09/22 11:35:36;;;;;;;0.20;0.20;;;;;;;;;;12581851;28;20461;-78
2022/09/22 11:41:41;;;;;;;0.85;0.20;;;;;;;;;;12593894;28;20032;-78
2022/09/22 11:47:45;;;;;;;0.32;0.20;;;;;;;;;;12587962;28;20558;-78
2022/09/22 11:54:13;;;;;;;0.25;0.10;;;;;;;;;;12586062;28;20492;-78
2022/09/22 12:00:19;;;;;;;0.35;0.35;;;;;;;;;;12544768;28;20396;-78
2022/09/22 12:06:23;;;;;;;0.68;0.20;;;;;;;;;;12599813;28;20104;-77
2022/09/22 12:12:25;;;;;;;0.47;0.25;;;;;;;;;;12603198;28;20393;-77
2022/09/22 12:18:27;;;;;;;;;;;;;;;;;;12603360;28;20044;-77
2022/09/22 12:24:29;;;;;;;0.30;0.20;;;;;;;;;;12562546;28;19927;-77
2022/09/22 12:30:31;;;;;;;0.30;0.20;;;;;;;;;;12609399;28;20032;-78
2022/09/22 12:36:33;;;;;;;;;;;;;;;;;;12600760;28;20051;-78
2022/09/22 12:42:38;;;;;;;0.20;0.20;;;;;;;;;;12610409;28;19959;-78
2022/09/22 12:48:44;;;;;;;0.50;0.20;;;;;;;;;;12566344;28;20056;-78
2022/09/22 12:54:46;;;;;;;1.20;0.30;;;;;;;;;;12581099;28;20044;-78
2022/09/22 13:00:49;;;;;;;1.08;0.20;;;;;;;;;;12602216;28;20033;-78
2022/09/22 13:06:51;;;;;;;0.20;0.20;;;;;;;;;;12587028;28;20028;-78
2022/09/22 13:13:20;;;;;;;0.93;0.10;;;;;;;;;;12579856;28;20043;-78
2022/09/22 13:19:24;;;;;;;0.57;0.30;;;;;;;;;;12625867;28;20458;-79
2022/09/22 13:25:28;;;;;;;0.30;0.20;;;;;;;;;;12585443;28;20059;-78
2022/09/22 13:31:40;;;;;;;0.65;0.10;;;;;;;;;;12611644;28;20308;-78
2022/09/22 13:37:41;;;;;;;;;;;;;;;;;;12630308;28;20362;-78
2022/09/22 13:43:44;;;;;;;0.57;0.10;;;;;;;;;;12629537;28;19907;-78
2022/09/22 13:49:50;;;;;;;0.10;0.10;;;;;;;;;;12630336;28;20056;-78
2022/09/22 13:55:52;;;;;;;0.20;0.20;;;;;;;;;;12630491;28;20040;-78
2022/09/22 14:01:54;;;;;;;0.60;0.20;;;;;;;;;;12632233;28;20047;-78
2022/09/22 14:07:57;;;;;;;0.13;0.13;;;;;;;;;;12621838;28;20488;-79
2022/09/22 14:14:00;;;;;;;0.22;0.17;;;;;;;;;;12641108;28;20094;-78
2022/09/22 14:20:04;;;;;;;0.20;0.20;;;;;;;;;;12640339;28;20428;-78
2022/09/22 14:26:22;;;;;;;0.30;0.25;;;;;;;;;;12641141;28;20031;-79
2022/09/22 14:32:30;;;;;;;0.50;0.50;;;;;;;;;;12639590;28;20035;-78
2022/09/22 14:38:38;;;;;;;1.75;0.30;;;;;;;;;;12637901;28;20043;-78
2022/09/22 14:44:44;;;;;;;0.15;0.15;;;;;;;;;;12638485;28;20039;-79
2022/09/22 14:51:01;;;;;;;0.52;0.25;;;;;;;;;;12637984;28;20458;-78
2022/09/22 14:57:05;;;;;;;0.20;0.20;;;;;;;;;;12602942;28;20046;-78
2022/09/22 15:03:19;;;;;;;0.65;0.30;;;;;;;;;;12619547;28;20054;-78
2022/09/22 15:09:37;;;;;;;0.47;0.20;;;;;;;;;;12637146;28;20485;-78
2022/09/22 15:15:44;;;;;;;0.40;0.17;;;;;;;;;;12601428;28;20048;-79
2022/09/22 15:21:46;;;;;;;0.10;0.10;;;;;;;;;;12618636;28;20040;-79
2022/09/22 15:27:55;;;;;;;0.20;0.20;;;;;;;;;;12617260;28;20032;-78
2022/09/22 15:34:01;;;;;;;0.25;0.20;;;;;;;;;;12636718;28;20040;-78
2022/09/22 15:40:09;;;;;;;0.55;0.30;;;;;;;;;;12617949;28;20028;-78
2022/09/22 15:46:27;;;;;;;0.32;0.20;;;;;;;;;;12631047;28;20044;-78
2022/09/22 15:52:28;;;;;;;0.50;0.20;;;;;;;;;;12633562;28;20048;-78
2022/09/22 15:58:34;;;;;;;0.30;0.30;;;;;;;;;;12634987;28;20046;-78
2022/09/22 16:04:36;;;;;;;2.53;0.30;;;;;;;;;;12617127;28;20044;-78
2022/09/22 16:10:40;;;;;;;;;;;;;;;;;;12634746;28;20043;-78
2022/09/22 16:16:42;;;;;;;0.30;0.30;;;;;;;;;;12615016;28;19924;-79
2022/09/22 16:22:44;;;;;;;0.50;0.35;;;;;;;;;;12633859;28;20032;-79
2022/09/22 16:28:46;;;;;;;0.25;0.20;;;;;;;;;;12634479;28;20051;-79
2022/09/22 16:34:48;;;;;;;0.40;0.40;;;;;;;;;;12615315;28;20062;-79
2022/09/22 16:41:03;;;;;;;0.45;0.40;;;;;;;;;;12615251;28;20047;-78
2022/09/22 16:47:05;;;;;;;0.32;0.30;;;;;;;;;;12618470;28;20051;-77
2022/09/22 16:53:06;;;;;;;1.03;0.30;;;;;;;;;;12632960;28;20063;-77
2022/09/22 16:59:09;;;;;;;0.50;0.50;;;;;;;;;;12613232;28;20278;-78
2022/09/22 17:05:10;;;;;;;0.50;0.40;;;;;;;;;;12632167;28;20441;-78
2022/09/22 17:11:13;;;;;;;0.50;0.50;;;;;;;;;;12631740;28;20140;-77
2022/09/22 17:17:15;;;;;;;;;;;;;;;;;;12631713;28;20074;-78
2022/09/22 17:23:18;;;;;;;0.40;0.40;;;;;;;;;;12629257;28;20349;-77
2022/09/22 17:29:24;;;;;;;1.08;0.50;;;;;;;;;;12630573;28;20036;-77
2022/09/22 17:35:25;;;;;;;1.23;0.50;;;;;;;;;;12628574;28;20043;-77
2022/09/22 17:41:30;;;;;;;0.50;0.50;;;;;;;;;;12631231;28;20024;-78
2022/09/22 18:00:14;;;;;;;0.50;0.50;;;;;;;;;;12630196;28;20040;-77
2022/09/22 18:06:18;;;;;;;1.17;0.60;;;;;;;;;;12630831;28;20365;-78
2022/09/22 18:12:22;;;;;;;0.65;0.60;;;;;;;;;;12630213;28;20141;-78
2022/09/22 18:18:24;;;;;;;0.75;0.50;;;;;;;;;;12629470;28;20040;-78
2022/09/22 18:24:26;;;;;;;0.37;0.37;;;;;;;;;;12631116;28;20052;-78
2022/09/22 18:30:28;;;;;;;;;;;;;;;;;;12629200;28;20476;-78
2022/09/22 18:36:31;;;;;;;0.63;0.60;;;;;;;;;;12630882;28;20387;-79
2022/09/22 18:42:33;;;;;;;1.40;1.30;;;;;;;;;;12628475;28;20032;-78
2022/09/22 18:48:35;;;;;;;1.10;1.00;;;;;;;;;;12630151;28;20460;-79
2022/09/22 18:54:41;;;;;;;1.33;1.00;;;;;;;;;;12637787;28;20497;-79
2022/09/22 19:00:43;;;;;;;1.25;0.93;;;;;;;;;;12638426;28;20539;-79
2022/09/22 19:13:06;;;;;;;1.83;0.75;;;;;;;;;;12636774;28;20454;-78
2022/09/22 19:19:08;;;;;;;0.70;0.70;;;;;;;;;;12638282;28;20040;-78
2022/09/22 19:25:11;;;;;;;0.63;0.60;;;;;;;;;;12635789;28;20285;-78
2022/09/22 19:31:13;;;;;;;;;;;;;;;;;;12637534;28;20488;-78
2022/09/22 19:37:14;;;;;;;0.55;0.55;;;;;;;;;;12636246;28;20344;-78
2022/09/22 19:43:16;;;;;;;0.97;0.50;;;;;;;;;;12636614;28;20048;-78
2022/09/22 19:49:18;;;;;;;0.40;0.40;;;;;;;;;;12637306;28;20500;-78
2022/09/22 19:55:20;;;;;;;0.60;0.60;;;;;;;;;;12636306;28;20040;-78
2022/09/22 20:01:42;;;;;;;0.90;0.90;;;;;;;;;;12617849;28;20035;-78
2022/09/22 20:07:44;;;;;;;0.60;0.60;;;;;;;;;;12601250;28;20020;-79
2022/09/22 20:20:06;;;;;;;0.80;0.80;;;;;;;;;;12636010;28;20048;-78
2022/09/22 20:26:09;;;;;;;1.10;1.00;;;;;;;;;;12616092;28;20105;-78
2022/09/22 20:32:11;;;;;;;1.00;1.00;;;;;;;;;;12616092;28;20036;-78
2022/09/22 20:38:14;;;;;;;0.70;0.70;;;;;;;;;;12615776;28;20488;-78
2022/09/22 20:44:15;;;;;;;;;;;;;;;;;;12615785;28;20484;-79
2022/09/22 20:50:18;;;;;;;2.05;1.25;;;;;;;;;;12634694;28;20288;-80
2022/09/22 20:56:20;;;;;;;0.80;0.80;;;;;;;;;;12633638;28;20039;-79
2022/09/22 21:02:22;;;;;;;1.40;1.20;;;;;;;;;;12634435;28;20051;-79
2022/09/22 21:14:44;;;;;;;1.70;1.60;;;;;;;;;;12612202;28;20043;-79
2022/09/22 21:20:46;;;;;;;2.50;1.50;;;;;;;;;;12614297;28;20032;-79
2022/09/22 21:26:48;;;;;;;1.45;1.33;;;;;;;;;;12631052;28;20039;-79
2022/09/22 21:32:50;;;;;;;1.80;1.70;;;;;;;;;;12631825;28;20044;-79
2022/09/22 21:38:56;;;;;;;1.90;1.53;;;;;;;;;;12631517;28;20083;-79
2022/09/22 21:44:58;;;;;;;2.13;1.63;;;;;;;;;;12630629;28;20473;-79
2022/09/22 21:51:01;;;;;;;1.60;1.50;;;;;;;;;;12630358;28;20052;-79
2022/09/22 21:57:02;;;;;;;1.92;1.70;;;;;;;;;;12613448;28;20044;-79
2022/09/22 22:09:25;;;;;;;2.20;1.70;;;;;;;;;;12630362;28;20028;-78
2022/09/22 22:15:27;;;;;;;2.33;1.60;;;;;;;;;;12629433;28;20063;-78
2022/09/22 22:21:29;;;;;;;1.77;1.67;;;;;;;;;;12612488;28;20488;-78
2022/09/22 22:27:31;;;;;;;1.63;1.52;;;;;;;;;;12640313;28;20464;-78
2022/09/22 22:33:33;;;;;;;2.03;1.90;;;;;;;;;;12640043;28;20400;-78
2022/09/22 22:39:36;;;;;;;1.73;1.63;;;;;;;;;;12641090;28;20476;-77
2022/09/22 22:45:37;;;;;;;2.20;1.98;;;;;;;;;;12639160;28;20031;-78
2022/09/22 22:51:41;;;;;;;2.07;1.97;;;;;;;;;;12620227;28;20056;-79
2022/09/22 22:57:43;;;;;;;2.45;2.33;;;;;;;;;;12612315;28;20055;-77
2022/09/22 23:03:46;;;;;;;3.55;3.25;;;;;;;;;;12637926;28;20333;-78
2022/09/22 23:10:04;;;;;;;2.90;2.70;;;;;;;;;;12637240;28;20059;-78
2022/09/22 23:16:08;;;;;;;3.10;2.80;;;;;;;;;;12614948;28;20361;-78
2022/09/22 23:22:09;;;;;;;3.30;3.00;;;;;;;;;;12632426;28;20050;-77
2022/09/22 23:28:11;;;;;;;3.65;3.35;;;;;;;;;;12637042;28;20028;-78
2022/09/22 23:34:13;;;;;;;3.50;3.20;;;;;;;;;;12617268;28;20158;-78
2022/09/22 23:40:15;;;;;;;4.38;3.75;;;;;;;;;;12618021;28;20043;-78
2022/09/22 23:46:16;;;;;;;4.35;3.95;;;;;;;;;;12635527;28;20051;-78
2022/09/22 23:52:20;;;;;;;4.72;4.32;;;;;;;;;;12635387;28;20055;-77
2022/09/22 23:58:22;;;;;;;3.42;3.13;;;;;;;;;;12634978;28;20052;-79
